createdAt,value
2023-03-22T00:01:31.023Z,52.50
2023-03-22T00:03:59.453Z,56.10
2023-03-22T00:06:27.693Z,56.60
2023-03-22T00:08:55.766Z,56.30
2023-03-22T00:11:25.896Z,57.10
2023-03-22T00:13:55.398Z,59.10
2023-03-22T00:16:23.697Z,61.50
2023-03-22T00:18:51.921Z,51.70
2023-03-22T00:21:20.142Z,47.90
2023-03-22T00:23:48.253Z,54.40
2023-03-22T00:26:16.608Z,60.20
2023-03-22T00:28:44.747Z,65.70
2023-03-22T00:31:14.175Z,63.20
2023-03-22T00:33:42.257Z,63.60
2023-03-22T00:36:12.225Z,62.40
2023-03-22T00:38:43.825Z,60.80
2023-03-22T00:41:15.962Z,64.00
2023-03-22T00:43:44.826Z,59.00
2023-03-22T00:46:15.902Z,60.00
2023-03-22T00:48:44.001Z,57.50
2023-03-22T00:51:12.536Z,52.20
2023-03-22T00:53:43.065Z,55.50
2023-03-22T00:56:13.769Z,62.10
2023-03-22T00:58:42.243Z,54.10
2023-03-22T01:01:13.639Z,58.80
2023-03-22T01:03:44.379Z,58.60
2023-03-22T01:06:12.852Z,58.50
2023-03-22T01:08:40.927Z,58.20
2023-03-22T01:11:09.756Z,58.10
2023-03-22T01:13:38.554Z,54.20
2023-03-22T01:16:07.680Z,57.90
2023-03-22T01:18:35.813Z,56.40
2023-03-22T01:21:05.875Z,61.70
2023-03-22T01:23:34.085Z,61.00
2023-03-22T01:26:02.447Z,59.50
2023-03-22T01:28:30.779Z,60.10
2023-03-22T01:31:02.555Z,59.50
2023-03-22T01:33:30.986Z,57.00
2023-03-22T01:35:59.098Z,55.90
2023-03-22T01:38:28.560Z,55.00
2023-03-22T01:40:57.170Z,65.40
2023-03-22T01:43:25.324Z,63.00
2023-03-22T01:45:54.016Z,66.00
2023-03-22T01:48:27.433Z,68.00
2023-03-22T01:51:04.741Z,63.90
2023-03-22T01:53:41.579Z,59.50
2023-03-22T01:56:10.783Z,60.90
2023-03-22T01:58:39.834Z,68.80
2023-03-22T02:01:10.590Z,73.90
2023-03-22T02:03:46.085Z,63.80
2023-03-22T02:06:15.316Z,64.30
2023-03-22T02:08:45.812Z,65.40
2023-03-22T02:11:17.859Z,63.40
2023-03-22T02:14:14.044Z,62.80
2023-03-22T02:16:54.468Z,63.70
2023-03-22T02:19:45.548Z,68.60
2023-03-22T02:22:39.333Z,67.10
2023-03-22T02:25:43.740Z,67.60
2023-03-22T02:28:21.925Z,75.00
2023-03-22T02:31:18.450Z,71.90
2023-03-22T02:34:05.294Z,62.60
2023-03-22T02:36:46.195Z,68.60
2023-03-22T02:39:22.028Z,79.40
2023-03-22T02:42:03.976Z,80.70
2023-03-22T02:44:41.508Z,75.90
2023-03-22T02:47:17.464Z,70.90
2023-03-22T02:49:53.004Z,70.00
2023-03-22T02:52:30.758Z,74.20
2023-03-22T02:55:07.461Z,73.20
2023-03-22T02:57:41.731Z,71.30
2023-03-22T03:00:12.985Z,69.00
2023-03-22T03:02:45.387Z,74.50
2023-03-22T03:05:15.536Z,66.00
2023-03-22T03:07:46.191Z,63.50
2023-03-22T03:10:17.971Z,65.40
2023-03-22T03:12:46.230Z,73.20
2023-03-22T03:15:17.063Z,64.50
2023-03-22T03:17:59.410Z,65.70
2023-03-22T03:20:35.259Z,70.70
2023-03-22T03:23:14.473Z,64.90
2023-03-22T03:25:53.129Z,68.90
2023-03-22T03:28:30.139Z,70.40
2023-03-22T03:31:04.523Z,66.90
2023-03-22T03:33:36.416Z,71.30
2023-03-22T03:36:09.382Z,65.90
2023-03-22T03:38:42.066Z,64.90
2023-03-22T03:41:15.254Z,70.30
2023-03-22T03:43:44.817Z,73.30
2023-03-22T03:46:13.379Z,71.60
2023-03-22T03:48:45.619Z,73.50
2023-03-22T03:51:13.681Z,74.70
2023-03-22T03:53:41.729Z,73.50
2023-03-22T03:56:11.764Z,69.20
2023-03-22T03:58:39.829Z,69.40
2023-03-22T04:01:08.789Z,69.00
2023-03-22T04:03:37.596Z,67.40
2023-03-22T04:06:06.414Z,67.40
2023-03-22T04:08:34.452Z,77.10
2023-03-22T04:11:02.516Z,73.40
2023-03-22T04:13:31.882Z,73.70
2023-03-22T04:16:02.029Z,69.50
2023-03-22T04:18:30.212Z,69.00
2023-03-22T04:20:58.269Z,68.40
2023-03-22T04:23:26.452Z,74.00
2023-03-22T04:25:54.800Z,69.00
2023-03-22T04:28:23.941Z,67.30
2023-03-22T04:30:54.098Z,76.20
2023-03-22T04:33:22.778Z,69.40
2023-03-22T04:35:56.653Z,73.30
2023-03-22T04:38:25.221Z,72.50
2023-03-22T04:40:53.312Z,66.90
2023-03-22T04:43:21.410Z,61.00
2023-03-22T04:45:49.502Z,64.10
2023-03-22T04:48:22.165Z,73.20
2023-03-22T04:50:53.370Z,69.40
2023-03-22T04:53:27.447Z,71.20
2023-03-22T04:55:57.057Z,67.40
2023-03-22T04:58:25.134Z,67.40
2023-03-22T05:00:54.107Z,72.50
2023-03-22T05:03:23.794Z,77.30
2023-03-22T05:05:53.580Z,81.60
2023-03-22T05:08:22.557Z,78.50
2023-03-22T05:10:51.021Z,80.90
2023-03-22T05:13:19.334Z,82.70
2023-03-22T05:15:49.130Z,83.50
2023-03-22T05:18:17.267Z,85.60
2023-03-22T05:20:46.688Z,83.90
2023-03-22T05:23:19.064Z,80.60
2023-03-22T05:25:47.278Z,84.30
2023-03-22T05:28:15.374Z,84.80
2023-03-22T05:30:44.374Z,83.50
2023-03-22T05:33:13.071Z,82.20
2023-03-22T05:35:42.208Z,81.70
2023-03-22T05:38:11.936Z,79.40
2023-03-22T05:40:40.290Z,78.00
2023-03-22T05:43:09.059Z,78.00
2023-03-22T05:45:37.938Z,78.70
2023-03-22T05:48:06.507Z,82.10
2023-03-22T05:50:35.310Z,84.00
2023-03-22T05:53:04.128Z,82.20
2023-03-22T05:55:33.558Z,78.20
2023-03-22T05:58:02.849Z,81.20
2023-03-22T06:00:32.123Z,79.30
2023-03-22T06:03:03.748Z,78.80
2023-03-22T06:05:32.950Z,76.60
2023-03-22T06:08:01.376Z,75.30
2023-03-22T06:10:29.467Z,72.20
2023-03-22T06:12:59.054Z,69.00
2023-03-22T06:15:26.953Z,68.80
2023-03-22T06:17:55.206Z,73.10
2023-03-22T06:20:23.247Z,71.20
2023-03-22T06:22:51.320Z,72.90
2023-03-22T06:25:19.624Z,71.50
2023-03-22T06:27:49.064Z,69.20
2023-03-22T06:30:19.140Z,68.80
2023-03-22T06:32:47.268Z,69.60
2023-03-22T06:35:15.562Z,69.50
2023-03-22T06:37:43.826Z,66.50
2023-03-22T06:40:12.746Z,65.90
2023-03-22T06:42:41.064Z,67.00
2023-03-22T06:45:09.826Z,67.10
2023-03-22T06:47:39.252Z,64.90
2023-03-22T06:50:08.020Z,64.40
2023-03-22T06:52:36.120Z,58.40
2023-03-22T06:55:04.726Z,56.10
2023-03-22T06:57:32.776Z,52.50
2023-03-22T07:00:00.900Z,50.00
2023-03-22T07:02:29.018Z,48.70
2023-03-22T07:04:58.433Z,44.10
2023-03-22T07:07:26.669Z,42.50
2023-03-22T07:09:56.925Z,44.40
2023-03-22T07:12:25.000Z,39.80
2023-03-22T07:14:53.200Z,40.30
2023-03-22T07:17:21.262Z,39.90
2023-03-22T07:19:49.316Z,39.10
2023-03-22T07:22:22.142Z,47.40
2023-03-22T07:24:56.506Z,54.10
2023-03-22T07:27:26.144Z,86.80
2023-03-22T07:29:54.228Z,87.70
2023-03-22T07:32:22.389Z,92.70
2023-03-22T07:34:50.681Z,93.20
2023-03-22T07:37:20.352Z,92.80
2023-03-22T07:39:48.396Z,93.00
2023-03-22T07:42:16.533Z,93.40
2023-03-22T07:44:47.132Z,92.90
2023-03-22T07:47:15.603Z,91.70
2023-03-22T07:49:43.688Z,92.80
2023-03-22T07:52:13.044Z,93.00
2023-03-22T07:54:42.648Z,92.90
2023-03-22T07:57:10.917Z,93.70
2023-03-22T07:59:40.168Z,93.10
2023-03-22T08:02:08.969Z,92.70
2023-03-22T08:04:37.262Z,92.10
2023-03-22T08:07:05.834Z,91.90
2023-03-22T08:09:34.221Z,91.70
2023-03-22T08:12:03.665Z,90.50
2023-03-22T08:14:36.621Z,89.80
2023-03-22T08:17:05.752Z,89.60
2023-03-22T08:19:34.175Z,90.20
2023-03-22T08:22:02.216Z,88.20
2023-03-22T08:24:30.316Z,89.50
2023-03-22T08:26:58.397Z,88.50
2023-03-22T08:29:28.223Z,84.80
2023-03-22T08:32:01.972Z,84.40
2023-03-22T08:34:31.284Z,81.40
2023-03-22T08:36:59.352Z,78.30
2023-03-22T08:39:27.995Z,78.50
2023-03-22T08:41:56.259Z,81.00
2023-03-22T08:44:24.342Z,79.70
2023-03-22T08:46:54.140Z,81.80
2023-03-22T08:49:22.242Z,78.30
2023-03-22T08:51:50.321Z,76.90
2023-03-22T08:54:18.389Z,80.20
2023-03-22T08:56:46.725Z,75.80
2023-03-22T08:59:14.810Z,73.70
2023-03-22T09:01:43.046Z,73.40
2023-03-22T09:04:12.567Z,73.80
2023-03-22T09:06:42.958Z,72.20
2023-03-22T09:09:11.429Z,67.80
2023-03-22T09:11:42.476Z,70.50
2023-03-22T09:14:10.765Z,71.00
2023-03-22T09:16:38.881Z,72.10
2023-03-22T09:19:07.325Z,66.00
2023-03-22T09:21:36.739Z,64.00
2023-03-22T09:24:04.958Z,67.20
2023-03-22T09:26:33.033Z,65.70
2023-03-22T09:29:01.170Z,61.40
2023-03-22T09:31:29.447Z,59.00
2023-03-22T09:33:57.571Z,59.60
2023-03-22T09:36:25.673Z,56.80
2023-03-22T09:38:55.108Z,57.10
2023-03-22T09:41:25.023Z,56.10
2023-03-22T09:43:57.205Z,57.10
2023-03-22T09:46:31.462Z,58.20
2023-03-22T09:49:02.191Z,59.50
2023-03-22T09:51:40.719Z,56.00
2023-03-22T09:54:18.391Z,55.60
2023-03-22T09:56:50.624Z,58.30
2023-03-22T09:59:24.549Z,55.20
2023-03-22T10:01:57.842Z,53.50
2023-03-22T10:04:46.594Z,53.60
2023-03-22T10:07:27.402Z,54.30
2023-03-22T10:10:07.099Z,55.00
2023-03-22T10:12:40.435Z,54.50
2023-03-22T10:15:15.272Z,53.80
2023-03-22T10:17:46.411Z,53.50
2023-03-22T10:20:26.485Z,54.20
2023-03-22T10:22:55.844Z,57.60
2023-03-22T10:25:25.673Z,54.90
2023-03-22T10:27:54.167Z,56.20
2023-03-22T10:30:24.505Z,53.40
2023-03-22T10:32:58.468Z,51.70
2023-03-22T10:35:27.002Z,48.50
2023-03-22T10:37:57.158Z,50.40
2023-03-22T10:40:29.790Z,48.10
2023-03-22T10:43:01.071Z,45.20
2023-03-22T10:45:30.217Z,45.70
2023-03-22T10:48:02.774Z,45.30
2023-03-22T10:50:33.614Z,46.00
2023-03-22T10:53:06.800Z,45.90
2023-03-22T10:55:41.226Z,45.70
2023-03-22T10:58:14.917Z,47.50
2023-03-22T11:00:47.206Z,47.10
2023-03-22T11:03:28.914Z,47.00
2023-03-22T11:06:02.366Z,47.70
2023-03-22T11:08:30.440Z,49.10
2023-03-22T11:11:00.324Z,47.60
2023-03-22T11:13:29.599Z,45.00
2023-03-22T11:16:03.565Z,44.00
2023-03-22T11:18:33.243Z,43.60
2023-03-22T11:21:07.261Z,40.70
2023-03-22T11:23:38.516Z,40.40
2023-03-22T11:26:13.422Z,41.80
2023-03-22T11:28:46.896Z,41.40
2023-03-22T11:31:17.367Z,41.10
2023-03-22T11:33:57.059Z,40.00
2023-03-22T11:36:26.043Z,40.10
2023-03-22T11:38:58.810Z,40.40
2023-03-22T11:41:30.313Z,41.30
2023-03-22T11:44:02.045Z,44.10
2023-03-22T11:46:31.755Z,42.40
2023-03-22T11:49:03.161Z,40.60
2023-03-22T11:51:35.065Z,40.80
2023-03-22T11:54:10.057Z,39.70
2023-03-22T11:56:43.449Z,38.60
2023-03-22T11:59:16.699Z,36.80
2023-03-22T12:01:49.903Z,38.00
2023-03-22T12:04:22.492Z,38.00
2023-03-22T12:06:54.073Z,38.60
2023-03-22T12:09:29.316Z,38.00
2023-03-22T12:12:01.300Z,37.50
2023-03-22T12:14:33.699Z,37.90
2023-03-22T12:17:07.147Z,39.00
2023-03-22T12:19:49.521Z,39.40
2023-03-22T12:22:20.947Z,41.20
2023-03-22T12:24:49.281Z,39.20
2023-03-22T12:27:22.417Z,38.40
2023-03-22T12:29:55.767Z,38.30
2023-03-22T12:32:27.917Z,40.10
2023-03-22T12:35:14.099Z,42.30
2023-03-22T12:37:49.248Z,39.40
2023-03-22T12:40:22.820Z,37.70
2023-03-22T12:43:00.506Z,36.80
2023-03-22T12:45:32.728Z,37.00
2023-03-22T12:48:06.906Z,36.40
2023-03-22T12:50:39.785Z,36.50
2023-03-22T12:53:12.650Z,38.10
2023-03-22T12:55:42.052Z,37.50
2023-03-22T12:58:16.081Z,39.50
2023-03-22T13:00:48.848Z,37.20
2023-03-22T13:03:26.858Z,37.60
2023-03-22T13:06:03.186Z,36.00
2023-03-22T13:09:01.222Z,35.90
2023-03-22T13:11:29.442Z,33.30
2023-03-22T13:13:58.898Z,34.00
2023-03-22T13:16:52.075Z,32.00
2023-03-22T13:19:37.984Z,31.30
2023-03-22T13:22:21.889Z,36.50
2023-03-22T13:25:01.210Z,33.60
2023-03-22T13:27:38.871Z,32.80
2023-03-22T13:30:17.832Z,31.80
2023-03-22T13:32:54.557Z,34.10
2023-03-22T13:35:28.186Z,36.20
2023-03-22T13:38:03.668Z,36.30
2023-03-22T13:40:37.759Z,37.10
2023-03-22T13:43:21.815Z,38.40
2023-03-22T13:46:06.838Z,37.20
2023-03-22T13:48:44.405Z,37.80
2023-03-22T13:51:17.906Z,40.20
2023-03-22T13:53:57.191Z,37.20
2023-03-22T13:56:34.776Z,35.80
2023-03-22T13:59:05.119Z,34.90
2023-03-22T14:01:37.585Z,34.00
2023-03-22T14:04:10.621Z,33.90
2023-03-22T14:06:46.904Z,34.60
2023-03-22T14:09:23.931Z,33.70
2023-03-22T14:11:58.094Z,35.50
2023-03-22T14:14:30.963Z,35.40
2023-03-22T14:17:04.967Z,31.90
2023-03-22T14:19:35.741Z,34.60
